Time;durP1;ratioP1;P1;durP2;ratioP2;P2;SDS_P1;SDS_P2;PMS_P1;PMS_P2;Temp;Humidity;BMP_temperature;BMP_pressure;BME280_temperature;BME280_humidity;BME280_pressure;Samples;Min_cycle;Max_cycle;Signal;HPM_P1;HPM_P2
2022/08/22 00:01:33;;;;;;;5.40;3.13;;;19.80;99.90;;;;;;5075173;28;20518;-53
2022/08/22 00:04:09;;;;;;;5.43;2.40;;;19.80;99.90;;;;;;5076990;28;20458;-47
2022/08/22 00:06:43;;;;;;;3.70;2.83;;;19.80;99.90;;;;;;5076556;28;20810;-53
2022/08/22 00:09:23;;;;;;;3.10;2.47;;;19.80;99.90;;;;;;5076750;28;20462;-57
2022/08/22 00:11:56;;;;;;;3.77;2.57;;;19.80;99.90;;;;;;5076829;28;20415;-54
2022/08/22 00:14:29;;;;;;;3.67;2.70;;;19.80;99.90;;;;;;5076510;28;20423;-53
2022/08/22 00:17:05;;;;;;;6.87;3.50;;;19.70;99.90;;;;;;5075122;28;20436;-49
2022/08/22 00:19:44;;;;;;;3.83;2.37;;;19.70;99.90;;;;;;5076427;28;20419;-54
2022/08/22 00:22:19;;;;;;;2.97;2.50;;;19.70;99.90;;;;;;5076515;28;20430;-57
2022/08/22 00:24:50;;;;;;;3.80;2.83;;;19.60;99.90;;;;;;5076391;28;20439;-53
2022/08/22 00:27:22;;;;;;;3.27;2.50;;;19.60;99.90;;;;;;5076124;28;20459;-58
2022/08/22 00:29:54;;;;;;;3.47;2.50;;;19.60;99.90;;;;;;5076071;28;20459;-53
2022/08/22 00:32:30;;;;;;;1.90;1.77;;;19.60;99.90;;;;;;5076491;28;20451;-56
2022/08/22 00:35:06;;;;;;;6.37;2.73;;;19.50;99.90;;;;;;5076392;28;20486;-53
2022/08/22 00:37:41;;;;;;;5.63;5.10;;;19.50;99.90;;;;;;5076508;28;20435;-57
2022/08/22 00:40:21;;;;;;;4.40;3.40;;;19.60;99.90;;;;;;5076304;28;20502;-52
2022/08/22 00:43:04;;;;;;;4.07;2.83;;;19.60;99.90;;;;;;5075801;28;20443;-52
2022/08/22 00:46:04;;;;;;;3.63;2.73;;;19.60;99.90;;;;;;5077880;28;20493;-53
2022/08/22 00:49:12;;;;;;;2.67;2.20;;;19.60;99.90;;;;;;5074704;28;20487;-56
2022/08/22 00:52:12;;;;;;;3.60;2.63;;;19.50;99.90;;;;;;5018964;28;20426;-54
2022/08/22 00:55:01;;;;;;;3.03;2.40;;;19.40;99.90;;;;;;5078724;28;20459;-58
2022/08/22 00:57:48;;;;;;;3.43;2.60;;;19.20;99.90;;;;;;5079802;28;20440;-53
2022/08/22 01:00:19;;;;;;;2.80;2.53;;;19.10;99.90;;;;;;5079417;28;20486;-57
2022/08/22 01:03:26;;;;;;;3.30;2.80;;;19.00;99.90;;;;;;5079912;28;20419;-57
2022/08/22 01:06:10;;;;;;;6.33;2.80;;;19.00;99.90;;;;;;5079534;28;20477;-60
2022/08/22 01:08:50;;;;;;;9.33;3.73;;;18.90;99.90;;;;;;5079438;28;20423;-56
2022/08/22 01:11:43;;;;;;;2.90;2.70;;;18.90;99.90;;;;;;5079348;28;20489;-57
2022/08/22 01:14:28;;;;;;;6.13;3.43;;;18.80;99.90;;;;;;5079280;28;20444;-54
2022/08/22 01:17:24;;;;;;;5.40;2.63;;;18.80;99.90;;;;;;5079348;28;20416;-53
2022/08/22 01:20:18;;;;;;;5.40;3.47;;;18.80;99.90;;;;;;5078892;28;20479;-53
2022/08/22 01:23:20;;;;;;;3.60;2.40;;;18.70;99.90;;;;;;5050953;28;20506;-53
2022/08/22 01:26:18;;;;;;;4.23;3.37;;;18.70;99.90;;;;;;5074250;28;20470;-51
2022/08/22 01:29:10;;;;;;;4.40;3.30;;;18.70;99.90;;;;;;5079070;28;20467;-57
2022/08/22 01:32:06;;;;;;;10.50;3.67;;;18.60;99.90;;;;;;5078705;28;20527;-53
2022/08/22 01:35:08;;;;;;;7.03;3.10;;;18.60;99.90;;;;;;5046473;28;20478;-56
2022/08/22 01:37:57;;;;;;;3.80;3.13;;;18.60;99.90;;;;;;5068042;28;20437;-49
2022/08/22 01:40:54;;;;;;;4.20;3.00;;;18.50;99.90;;;;;;5078794;28;20892;-51
2022/08/22 01:43:33;;;;;;;5.27;3.90;;;18.60;99.90;;;;;;5078439;28;20411;-52
2022/08/22 01:46:25;;;;;;;2.60;2.40;;;18.50;99.90;;;;;;5078556;28;20469;-56
2022/08/22 01:49:03;;;;;;;4.77;3.07;;;18.50;99.90;;;;;;5078616;28;20427;-54
2022/08/22 01:51:43;;;;;;;3.93;2.90;;;18.50;99.90;;;;;;5078742;28;20458;-54
2022/08/22 01:54:21;;;;;;;4.67;3.10;;;18.50;99.90;;;;;;5079183;28;20426;-50
2022/08/22 01:56:48;;;;;;;5.60;3.07;;;18.50;99.90;;;;;;5077549;28;20482;-53
2022/08/22 01:59:30;;;;;;;5.13;2.87;;;18.50;99.90;;;;;;5078579;28;20433;-52
2022/08/22 02:02:02;;;;;;;4.60;3.17;;;18.40;99.90;;;;;;5078287;28;20574;-53
2022/08/22 02:04:37;;;;;;;4.23;3.00;;;18.50;99.90;;;;;;5078545;28;20443;-57
2022/08/22 02:07:12;;;;;;;6.43;3.33;;;18.40;99.90;;;;;;5078256;28;20477;-55
2022/08/22 02:09:48;;;;;;;6.10;3.10;;;18.40;99.90;;;;;;5078272;28;20438;-50
2022/08/22 02:12:26;;;;;;;4.50;3.30;;;18.50;99.90;;;;;;5078247;28;20459;-54
2022/08/22 02:15:02;;;;;;;5.10;3.80;;;18.40;99.90;;;;;;5078249;28;20447;-51
2022/08/22 02:17:33;;;;;;;4.90;3.20;;;18.40;99.90;;;;;;5078031;28;20539;-53
2022/08/22 02:20:07;;;;;;;3.87;3.40;;;18.40;99.90;;;;;;5078673;28;20443;-55
2022/08/22 02:22:57;;;;;;;5.40;3.53;;;18.50;99.90;;;;;;5077930;28;20497;-53
2022/08/22 02:25:27;;;;;;;5.27;3.80;;;18.50;99.90;;;;;;5077937;28;20427;-56
2022/08/22 02:28:02;;;;;;;3.00;2.60;;;18.40;99.90;;;;;;5077972;28;20471;-60
2022/08/22 02:30:46;;;;;;;4.57;3.80;;;18.40;99.90;;;;;;5077666;28;20438;-52
2022/08/22 02:33:22;;;;;;;4.83;3.03;;;18.40;99.90;;;;;;5061443;28;20463;-51
2022/08/22 02:35:54;;;;;;;6.10;3.90;;;18.40;99.90;;;;;;5077822;28;20408;-56
2022/08/22 02:38:31;;;;;;;4.67;3.17;;;18.40;99.90;;;;;;5077509;28;20470;-53
2022/08/22 02:41:08;;;;;;;4.03;3.20;;;18.30;99.90;;;;;;5077837;28;20494;-53
2022/08/22 02:43:42;;;;;;;3.13;2.77;;;18.30;99.90;;;;;;5077742;28;20462;-54
2022/08/22 02:46:18;;;;;;;4.30;2.93;;;18.30;99.90;;;;;;5077853;28;20408;-53
2022/08/22 02:48:54;;;;;;;5.73;3.40;;;18.30;99.90;;;;;;5077609;28;20483;-53
2022/08/22 02:51:31;;;;;;;4.67;3.67;;;18.30;99.90;;;;;;5077569;28;20423;-56
2022/08/22 02:54:27;;;;;;;4.10;3.70;;;18.30;99.90;;;;;;5077340;28;20501;-53
2022/08/22 02:57:00;;;;;;;3.10;2.80;;;18.30;99.90;;;;;;5076516;28;20482;-52
2022/08/22 02:59:35;;;;;;;5.83;3.60;;;18.30;99.90;;;;;;5077581;28;20485;-53
2022/08/22 03:02:29;;;;;;;3.60;3.30;;;18.20;99.90;;;;;;5076558;28;20478;-54
2022/08/22 03:04:59;;;;;;;5.63;2.83;;;18.20;99.90;;;;;;5077211;28;20507;-56
2022/08/22 03:07:35;;;;;;;6.70;3.47;;;18.20;99.90;;;;;;5076703;28;20435;-60
2022/08/22 03:10:17;;;;;;;3.20;2.90;;;18.20;99.90;;;;;;5077567;28;20466;-57
2022/08/22 03:12:54;;;;;;;5.13;3.50;;;18.20;99.90;;;;;;5077465;28;20427;-60
2022/08/22 03:15:28;;;;;;;6.60;2.97;;;18.20;99.90;;;;;;5077171;28;20429;-59
2022/08/22 03:18:04;;;;;;;5.63;3.40;;;18.20;99.90;;;;;;5077129;28;20410;-59
2022/08/22 03:20:50;;;;;;;3.43;3.13;;;18.30;99.90;;;;;;5077144;28;20439;-55
2022/08/22 03:23:28;;;;;;;3.80;3.20;;;18.30;99.90;;;;;;5077171;28;20424;-53
2022/08/22 03:26:06;;;;;;;3.27;2.93;;;18.40;99.90;;;;;;5077425;28;20518;-61
2022/08/22 03:28:39;;;;;;;4.97;3.43;;;18.40;99.90;;;;;;5077019;28;20439;-54
2022/08/22 03:31:13;;;;;;;4.70;3.90;;;18.50;99.90;;;;;;5077317;28;20411;-53
2022/08/22 03:33:40;;;;;;;6.20;3.10;;;18.50;99.90;;;;;;5076764;28;20426;-53
2022/08/22 03:36:23;;;;;;;7.70;3.30;;;18.50;99.90;;;;;;5077305;28;20451;-52
2022/08/22 03:39:04;;;;;;;8.33;3.40;;;18.50;99.90;;;;;;5076775;28;20451;-48
2022/08/22 03:42:03;;;;;;;5.33;4.07;;;18.50;99.90;;;;;;5077014;28;20688;-47
2022/08/22 03:45:05;;;;;;;4.90;3.43;;;18.60;99.90;;;;;;5042779;28;20474;-53
2022/08/22 03:48:08;;;;;;;5.20;4.47;;;18.60;99.90;;;;;;5076840;28;20447;-56
2022/08/22 03:51:03;;;;;;;4.80;3.20;;;18.50;99.90;;;;;;5063353;28;20510;-54
2022/08/22 03:53:55;;;;;;;7.43;4.83;;;18.60;99.90;;;;;;5076800;28;20435;-55
2022/08/22 03:56:53;;;;;;;6.13;4.27;;;18.50;99.90;;;;;;5059590;28;20441;-54
2022/08/22 03:59:48;;;;;;;6.10;3.50;;;18.50;99.90;;;;;;5077287;28;20424;-47
2022/08/22 04:02:40;;;;;;;6.80;3.13;;;18.50;99.90;;;;;;5077395;28;20555;-47
2022/08/22 04:05:32;;;;;;;4.37;3.60;;;18.50;99.90;;;;;;5077329;28;20482;-53
2022/08/22 04:08:44;;;;;;;5.07;3.83;;;18.50;99.90;;;;;;5077046;28;20479;-58
2022/08/22 04:11:47;;;;;;;4.80;3.83;;;18.50;99.90;;;;;;5077201;28;20939;-46
2022/08/22 04:14:28;;;;;;;5.47;3.97;;;18.50;99.90;;;;;;5051601;28;20431;-57
2022/08/22 04:17:37;;;;;;;4.50;4.03;;;18.50;99.90;;;;;;5076271;28;20484;-48
2022/08/22 04:20:39;;;;;;;5.73;4.20;;;18.50;99.90;;;;;;5077104;28;20451;-54
2022/08/22 04:23:39;;;;;;;5.70;5.10;;;18.50;99.90;;;;;;5055223;28;20478;-50
2022/08/22 04:26:09;;;;;;;6.33;3.70;;;18.50;99.90;;;;;;5080284;28;20487;-54
2022/08/22 04:28:39;;;;;;;6.33;5.00;;;18.50;99.90;;;;;;5080583;28;20466;-55
2022/08/22 04:31:10;;;;;;;11.10;4.60;;;18.50;99.90;;;;;;5080357;28;20455;-55
2022/08/22 04:33:45;;;;;;;6.03;4.30;;;18.50;99.90;;;;;;5080428;28;20450;-55
2022/08/22 04:36:20;;;;;;;4.97;4.10;;;18.50;99.90;;;;;;5080325;28;20943;-49
2022/08/22 04:38:56;;;;;;;4.17;3.77;;;18.50;99.90;;;;;;5080085;28;20454;-51
2022/08/22 04:41:41;;;;;;;6.90;4.53;;;18.60;99.90;;;;;;5079774;28;20494;-57
2022/08/22 04:44:14;;;;;;;6.60;3.90;;;18.60;99.90;;;;;;5079965;28;20416;-56
2022/08/22 04:46:45;;;;;;;6.10;4.07;;;18.60;99.90;;;;;;5080355;28;20474;-52
2022/08/22 04:49:26;;;;;;;5.03;4.53;;;18.60;99.90;;;;;;5080235;28;20482;-51
2022/08/22 04:51:59;;;;;;;5.37;3.70;;;18.60;99.90;;;;;;5079780;28;20751;-54
2022/08/22 04:54:45;;;;;;;6.23;4.37;;;18.70;99.90;;;;;;5079711;28;20431;-50
2022/08/22 04:57:24;;;;;;;4.73;4.10;;;18.80;99.90;;;;;;5079849;28;20455;-57
2022/08/22 04:59:51;;;;;;;3.67;3.37;;;18.80;99.90;;;;;;5079440;28;20435;-52
2022/08/22 05:02:22;;;;;;;4.83;3.57;;;18.80;99.90;;;;;;5078484;28;20543;-53
2022/08/22 05:04:58;;;;;;;6.77;6.10;;;18.90;99.90;;;;;;5081966;28;20443;-52
2022/08/22 05:07:29;;;;;;;6.27;4.70;;;19.00;99.90;;;;;;5072130;28;20442;-53
2022/08/22 05:10:03;;;;;;;4.57;4.17;;;19.00;99.90;;;;;;5077643;28;20431;-57
2022/08/22 05:12:36;;;;;;;4.93;4.03;;;19.10;99.90;;;;;;5072711;28;20457;-51
2022/08/22 05:15:13;;;;;;;9.00;4.13;;;19.10;99.90;;;;;;5062222;28;20436;-55
2022/08/22 05:17:43;;;;;;;4.10;3.70;;;19.10;99.90;;;;;;5059570;28;20503;-56
2022/08/22 05:20:17;;;;;;;5.77;4.43;;;19.10;99.90;;;;;;5059122;28;20454;-60
2022/08/22 05:22:47;;;;;;;6.43;3.80;;;19.10;99.90;;;;;;5058960;28;20527;-53
2022/08/22 05:25:20;;;;;;;5.40;4.27;;;19.10;99.90;;;;;;5059197;28;20449;-56
2022/08/22 05:27:51;;;;;;;5.00;3.73;;;19.10;99.90;;;;;;5061602;28;20456;-55
2022/08/22 05:30:23;;;;;;;5.47;3.93;;;19.20;99.90;;;;;;5060606;28;20437;-54
2022/08/22 05:32:56;;;;;;;4.63;3.80;;;19.20;99.90;;;;;;5058919;28;20464;-54
2022/08/22 05:35:33;;;;;;;5.80;4.47;;;19.30;99.90;;;;;;5058508;28;20588;-55
2022/08/22 05:38:01;;;;;;;7.53;4.60;;;19.30;99.90;;;;;;5058823;28;20483;-57
2022/08/22 05:40:32;;;;;;;5.10;3.30;;;19.30;99.90;;;;;;5058827;28;20432;-57
2022/08/22 05:42:59;;;;;;;7.37;3.93;;;19.40;99.90;;;;;;5058608;28;20449;-56
2022/08/22 05:45:28;;;;;;;6.30;4.20;;;19.50;99.90;;;;;;5058958;28;20440;-58
2022/08/22 05:48:01;;;;;;;6.63;4.00;;;19.50;99.90;;;;;;5058690;28;20439;-54
2022/08/22 05:50:38;;;;;;;4.43;3.93;;;19.60;99.90;;;;;;5058375;28;20488;-44
2022/08/22 05:53:10;;;;;;;7.40;4.60;;;19.70;99.90;;;;;;5057535;28;20515;-54
2022/08/22 05:55:46;;;;;;;9.03;4.17;;;19.80;99.90;;;;;;5057984;28;20439;-54
2022/08/22 05:58:30;;;;;;;4.63;3.77;;;19.90;99.90;;;;;;5041454;28;20432;-60
2022/08/22 06:01:05;;;;;;;6.23;5.37;;;20.10;99.90;;;;;;5036051;28;20955;-59
2022/08/22 06:03:36;;;;;;;5.27;3.93;;;20.20;99.90;;;;;;5036235;28;20558;-59
2022/08/22 06:06:14;;;;;;;5.87;4.20;;;20.30;99.90;;;;;;5035876;28;20437;-61
2022/08/22 06:08:43;;;;;;;8.97;4.53;;;20.40;99.90;;;;;;5036196;28;20483;-60
2022/08/22 06:11:18;;;;;;;5.40;3.80;;;20.50;99.90;;;;;;5036983;28;20450;-57
2022/08/22 06:13:51;;;;;;;7.77;5.00;;;20.60;99.90;;;;;;5039125;28;20424;-64
2022/08/22 06:16:22;;;;;;;4.93;4.40;;;20.70;99.90;;;;;;5036772;28;20555;-60
2022/08/22 06:18:51;;;;;;;7.83;4.27;;;20.90;99.90;;;;;;5036894;28;20507;-62
2022/08/22 06:21:25;;;;;;;5.57;5.07;;;21.10;99.90;;;;;;5036890;28;20440;-60
2022/08/22 06:23:56;;;;;;;5.70;4.60;;;21.20;99.90;;;;;;5036781;28;20929;-60
2022/08/22 06:26:27;;;;;;;13.30;5.03;;;21.40;99.90;;;;;;5036269;28;20444;-65
2022/08/22 06:28:58;;;;;;;5.90;4.50;;;21.50;99.90;;;;;;5035697;28;20472;-61
2022/08/22 06:31:31;;;;;;;4.53;3.97;;;21.70;99.90;;;;;;5047513;28;20464;-63
2022/08/22 06:34:03;;;;;;;7.77;4.70;;;21.90;99.90;;;;;;5056041;28;20447;-61
2022/08/22 06:36:33;;;;;;;7.77;5.33;;;22.00;99.90;;;;;;5047939;28;20483;-62
2022/08/22 06:39:10;;;;;;;5.90;4.10;;;22.20;99.90;;;;;;5049737;28;20449;-59
2022/08/22 06:41:50;;;;;;;6.90;4.20;;;22.30;99.90;;;;;;5046444;28;20466;-62
2022/08/22 06:44:22;;;;;;;10.07;4.53;;;22.40;99.90;;;;;;5057611;28;20439;-62
2022/08/22 06:46:52;;;;;;;5.13;4.63;;;22.50;99.90;;;;;;5058571;28;20475;-57
2022/08/22 06:49:22;;;;;;;6.60;4.83;;;22.60;99.90;;;;;;5058034;28;20519;-61
2022/08/22 06:51:51;;;;;;;5.70;4.20;;;22.60;99.90;;;;;;5043158;28;20865;-60
2022/08/22 06:54:24;;;;;;;4.73;3.90;;;22.70;99.90;;;;;;5039220;28;20456;-61
2022/08/22 06:56:54;;;;;;;8.67;4.70;;;22.90;99.90;;;;;;5037761;28;20482;-64
2022/08/22 06:59:25;;;;;;;5.13;4.23;;;22.90;99.90;;;;;;5038815;28;20444;-63
2022/08/22 07:01:59;;;;;;;4.40;3.40;;;23.00;99.90;;;;;;5048420;28;20550;-56
2022/08/22 07:04:27;;;;;;;5.43;4.63;;;23.10;99.90;;;;;;5057184;28;20881;-58
2022/08/22 07:06:59;;;;;;;7.83;4.00;;;23.20;99.90;;;;;;5058364;28;20474;-61
2022/08/22 07:09:29;;;;;;;5.03;3.57;;;23.30;99.90;;;;;;5058147;28;20436;-61
2022/08/22 07:12:01;;;;;;;5.63;3.00;;;23.30;99.90;;;;;;5057872;28;20458;-57
2022/08/22 07:14:33;;;;;;;4.13;2.90;;;23.40;99.90;;;;;;5059111;28;20542;-52
2022/08/22 07:17:07;;;;;;;5.37;3.17;;;23.50;99.90;;;;;;5059133;28;20416;-61
2022/08/22 07:19:37;;;;;;;4.70;2.97;;;23.50;99.90;;;;;;5059636;28;20494;-60
2022/08/22 07:22:14;;;;;;;4.03;3.00;;;23.50;99.90;;;;;;5058896;28;20471;-60
2022/08/22 07:24:47;;;;;;;8.60;3.30;;;23.60;99.90;;;;;;5059170;28;20467;-61
2022/08/22 07:27:26;;;;;;;3.37;2.67;;;23.60;99.90;;;;;;5059553;28;20456;-61
2022/08/22 07:30:01;;;;;;;3.40;2.80;;;23.60;99.90;;;;;;5060204;28;20502;-61
2022/08/22 07:32:40;;;;;;;5.30;2.50;;;23.70;99.90;;;;;;5060881;28;20461;-62
2022/08/22 07:35:10;;;;;;;4.07;2.93;;;23.70;99.90;;;;;;5060262;28;20467;-62
2022/08/22 07:37:59;;;;;;;4.63;3.13;;;23.80;99.90;;;;;;5058944;28;20431;-61
2022/08/22 07:40:33;;;;;;;4.87;2.80;;;23.90;99.90;;;;;;5046675;28;20480;-59
2022/08/22 07:43:08;;;;;;;2.70;2.30;;;24.00;99.90;;;;;;5041621;28;20555;-60
2022/08/22 07:45:43;;;;;;;14.03;3.00;;;24.10;99.90;;;;;;5037465;28;20796;-60
2022/08/22 07:48:17;;;;;;;4.20;2.83;;;24.20;99.90;;;;;;5053437;28;20943;-62
2022/08/22 07:50:56;;;;;;;5.73;2.90;;;24.30;99.90;;;;;;5041477;28;20427;-61
2022/08/22 07:53:30;;;;;;;3.40;3.10;;;24.30;99.90;;;;;;5034578;28;20928;-60
2022/08/22 07:55:59;;;;;;;6.47;3.13;;;24.30;99.90;;;;;;5034645;28;20450;-56
2022/08/22 07:58:29;;;;;;;5.30;3.27;;;24.40;99.90;;;;;;5034703;28;20542;-56
2022/08/22 08:00:57;;;;;;;5.70;2.97;;;24.50;99.90;;;;;;5034800;28;20531;-58
2022/08/22 08:03:28;;;;;;;3.13;2.30;;;24.70;99.90;;;;;;5034532;28;20487;-61
2022/08/22 08:05:55;;;;;;;3.43;2.50;;;24.80;99.90;;;;;;5034529;28;20428;-61
2022/08/22 08:08:27;;;;;;;4.97;2.63;;;25.10;99.90;;;;;;5039707;28;20443;-60
2022/08/22 08:10:57;;;;;;;3.83;2.63;;;25.30;99.90;;;;;;5053996;28;20455;-60
2022/08/22 08:13:29;;;;;;;5.60;3.40;;;25.50;99.90;;;;;;5050166;28;20451;-58
2022/08/22 08:15:57;;;;;;;3.20;2.63;;;25.70;99.90;;;;;;5053828;28;20865;-56
2022/08/22 08:18:30;;;;;;;3.60;2.43;;;25.90;99.90;;;;;;5054523;28;20520;-63
2022/08/22 08:21:02;;;;;;;7.57;2.67;;;25.90;99.90;;;;;;5054413;28;20481;-64
2022/08/22 08:23:36;;;;;;;10.33;2.93;;;26.00;99.90;;;;;;5054904;28;20466;-66
2022/08/22 08:26:07;;;;;;;7.40;2.17;;;26.10;99.90;;;;;;5055200;28;20475;-56
2022/08/22 08:28:40;;;;;;;5.40;2.43;;;26.40;99.90;;;;;;5052414;28;20444;-59
2022/08/22 08:31:13;;;;;;;5.40;2.40;;;26.70;99.90;;;;;;5040799;28;20449;-54
2022/08/22 08:33:44;;;;;;;5.10;2.30;;;27.20;99.20;;;;;;5038511;28;20443;-61
2022/08/22 08:36:34;;;;;;;2.80;1.73;;;27.50;97.00;;;;;;5039013;28;20463;-61
2022/08/22 08:39:16;;;;;;;3.70;2.10;;;27.90;95.10;;;;;;5039025;28;20487;-62
2022/08/22 08:42:24;;;;;;;5.43;2.80;;;28.30;92.80;;;;;;5040725;28;20515;-57
2022/08/22 08:45:21;;;;;;;4.43;2.03;;;28.50;91.10;;;;;;4977765;28;20438;-61
2022/08/22 08:48:30;;;;;;;4.70;2.30;;;28.50;88.10;;;;;;4970885;28;21020;-62
2022/08/22 08:51:18;;;;;;;3.70;1.80;;;28.40;88.90;;;;;;5023407;28;20448;-61
2022/08/22 08:54:09;;;;;;;2.97;2.60;;;28.30;89.80;;;;;;5038358;28;20436;-61
2022/08/22 08:56:47;;;;;;;2.77;1.90;;;28.40;89.20;;;;;;5037661;28;20431;-62
2022/08/22 08:59:27;;;;;;;2.07;1.87;;;28.30;87.70;;;;;;5037856;28;20761;-62
2022/08/22 09:02:21;;;;;;;2.90;2.50;;;28.30;86.90;;;;;;5036838;28;20963;-61
2022/08/22 09:05:15;;;;;;;3.40;2.27;;;28.30;85.40;;;;;;5036384;28;20424;-59
2022/08/22 09:08:23;;;;;;;112.60;78.63;;;28.30;86.70;;;;;;5040293;28;20436;-60
2022/08/22 09:11:24;;;;;;;15.43;12.40;;;28.30;86.60;;;;;;5031545;28;20489;-60
2022/08/22 09:14:02;;;;;;;3.97;2.67;;;28.20;85.50;;;;;;5008531;28;20819;-54
2022/08/22 09:16:47;;;;;;;2.50;2.03;;;28.20;84.60;;;;;;5037886;28;20562;-57
2022/08/22 09:19:45;;;;;;;3.33;2.13;;;28.10;84.60;;;;;;5038067;28;20440;-60
2022/08/22 09:22:31;;;;;;;3.07;2.40;;;27.90;84.40;;;;;;5037599;28;20472;-60
2022/08/22 09:25:15;;;;;;;2.80;1.87;;;27.80;85.10;;;;;;5037195;28;20420;-55
2022/08/22 09:27:52;;;;;;;2.60;2.20;;;27.80;87.10;;;;;;5036735;28;20460;-58
2022/08/22 09:30:22;;;;;;;5.43;2.33;;;27.90;85.10;;;;;;5036611;28;20423;-57
2022/08/22 09:32:56;;;;;;;6.10;2.70;;;27.80;86.40;;;;;;5036947;28;20527;-53
2022/08/22 09:35:32;;;;;;;3.33;2.63;;;28.00;86.20;;;;;;5036858;28;20535;-55
2022/08/22 09:38:17;;;;;;;4.63;2.20;;;28.00;84.60;;;;;;5038117;28;20932;-61
2022/08/22 09:40:51;;;;;;;6.37;2.40;;;28.20;85.60;;;;;;5038708;28;20450;-59
2022/08/22 09:43:22;;;;;;;3.87;2.10;;;28.40;85.00;;;;;;5038218;28;20508;-63
2022/08/22 09:45:57;;;;;;;2.67;1.90;;;28.70;84.00;;;;;;5037262;28;20516;-60
2022/08/22 09:48:35;;;;;;;6.80;3.10;;;28.90;82.50;;;;;;5036577;28;20451;-61
2022/08/22 09:51:13;;;;;;;17.20;11.90;;;29.10;80.10;;;;;;5036308;28;20522;-52
2022/08/22 09:54:08;;;;;;;15.20;9.77;;;29.30;80.10;;;;;;5042539;28;20459;-60
2022/08/22 09:56:40;;;;;;;3.63;2.63;;;29.50;79.30;;;;;;5039156;28;20497;-52
2022/08/22 09:59:13;;;;;;;4.00;2.30;;;29.70;77.60;;;;;;5059368;28;20773;-56
2022/08/22 10:01:49;;;;;;;6.23;3.20;;;29.90;76.40;;;;;;5058303;28;20471;-58
2022/08/22 10:04:52;;;;;;;6.33;2.20;;;30.10;75.70;;;;;;5056388;28;21005;-58
2022/08/22 10:07:58;;;;;;;7.60;3.37;;;30.30;74.40;;;;;;5056050;28;20538;-55
2022/08/22 10:10:41;;;;;;;6.50;2.63;;;30.40;73.70;;;;;;5055936;28;20971;-55
2022/08/22 10:13:23;;;;;;;3.00;1.87;;;30.40;72.70;;;;;;5056169;28;20545;-55
2022/08/22 10:15:59;;;;;;;10.10;2.80;;;30.30;72.20;;;;;;5055874;28;20689;-57
2022/08/22 10:18:35;;;;;;;2.77;2.27;;;30.30;73.10;;;;;;5054974;28;20770;-55
2022/08/22 10:21:11;;;;;;;3.93;2.13;;;30.40;72.30;;;;;;5055666;28;20441;-63
2022/08/22 10:23:44;;;;;;;5.60;3.03;;;30.30;71.00;;;;;;5056107;28;20557;-53
2022/08/22 10:26:30;;;;;;;6.30;3.77;;;30.10;70.60;;;;;;5056481;28;20432;-55
2022/08/22 10:29:07;;;;;;;6.00;3.93;;;29.90;69.70;;;;;;5055977;28;21063;-55
2022/08/22 10:31:40;;;;;;;3.47;2.40;;;29.80;71.20;;;;;;5052517;28;20820;-56
2022/08/22 10:34:11;;;;;;;3.93;2.77;;;29.60;72.00;;;;;;5050139;28;20461;-54
2022/08/22 10:36:51;;;;;;;3.53;1.93;;;29.50;71.20;;;;;;5035430;28;20468;-51
2022/08/22 10:39:24;;;;;;;5.60;2.30;;;29.40;71.20;;;;;;5035785;28;20419;-55
2022/08/22 10:42:18;;;;;;;3.00;1.57;;;29.40;68.90;;;;;;5036374;28;20467;-54
2022/08/22 10:45:02;;;;;;;2.87;1.93;;;29.40;66.40;;;;;;5036314;28;20468;-53
2022/08/22 10:47:38;;;;;;;2.03;1.70;;;29.50;68.00;;;;;;5036226;28;20476;-58
2022/08/22 10:50:12;;;;;;;3.50;2.07;;;29.50;68.50;;;;;;5035675;28;20534;-58
2022/08/22 10:52:46;;;;;;;7.00;2.33;;;29.40;69.30;;;;;;5035501;28;20522;-55
2022/08/22 10:55:17;;;;;;;4.10;2.20;;;29.30;68.90;;;;;;5035145;28;20440;-56
2022/08/22 10:57:58;;;;;;;3.43;2.20;;;29.20;68.40;;;;;;5035654;28;20551;-54
2022/08/22 11:00:41;;;;;;;3.63;3.30;;;29.10;68.10;;;;;;5035075;28;20467;-57
2022/08/22 11:03:15;;;;;;;5.93;2.10;;;29.00;67.60;;;;;;5035358;28;20483;-58
2022/08/22 11:05:44;;;;;;;2.27;1.90;;;29.10;68.70;;;;;;5035279;28;20455;-55
2022/08/22 11:08:35;;;;;;;2.60;1.80;;;29.10;67.90;;;;;;5035231;28;20468;-55
2022/08/22 11:11:14;;;;;;;5.83;2.30;;;29.00;69.50;;;;;;5035121;28;20889;-55
2022/08/22 11:13:50;;;;;;;4.90;4.30;;;28.90;70.20;;;;;;5035098;28;20554;-56
2022/08/22 11:16:35;;;;;;;3.47;2.10;;;28.80;70.70;;;;;;5035062;28;20558;-54
2022/08/22 11:19:19;;;;;;;6.50;2.00;;;28.80;69.90;;;;;;5034636;28;20471;-54
2022/08/22 11:21:56;;;;;;;2.10;1.70;;;28.90;70.70;;;;;;5035110;28;20436;-57
2022/08/22 11:25:12;;;;;;;3.60;2.70;;;28.90;70.90;;;;;;5052401;28;20968;-53
2022/08/22 11:27:48;;;;;;;3.77;2.27;;;28.90;70.50;;;;;;5057187;28;20518;-53
2022/08/22 11:30:18;;;;;;;3.67;2.07;;;28.80;69.90;;;;;;5048003;28;20934;-55
2022/08/22 11:33:13;;;;;;;2.57;2.30;;;28.80;69.50;;;;;;5056248;28;20818;-55
2022/08/22 11:35:44;;;;;;;6.37;3.40;;;28.70;70.50;;;;;;5051023;28;20951;-54
2022/08/22 11:38:22;;;;;;;3.50;2.33;;;28.70;70.10;;;;;;5050203;28;20530;-55
2022/08/22 11:40:59;;;;;;;4.50;2.57;;;28.60;70.90;;;;;;5050914;28;20471;-57
2022/08/22 11:43:51;;;;;;;1.80;1.70;;;28.50;70.60;;;;;;5047551;28;20470;-54
2022/08/22 11:46:23;;;;;;;3.90;2.70;;;28.30;70.00;;;;;;5061926;28;20501;-53
2022/08/22 11:49:16;;;;;;;2.67;2.10;;;28.10;71.00;;;;;;5066877;28;20448;-55
2022/08/22 11:52:13;;;;;;;3.87;2.10;;;28.10;72.80;;;;;;5070061;28;20491;-55
2022/08/22 11:54:56;;;;;;;3.57;1.87;;;28.10;73.10;;;;;;5065616;28;20451;-51
2022/08/22 11:57:32;;;;;;;3.20;2.30;;;28.00;72.00;;;;;;5069997;28;20527;-54
2022/08/22 12:00:14;;;;;;;4.43;1.80;;;27.90;73.30;;;;;;5070069;28;20423;-54
2022/08/22 12:02:55;;;;;;;4.70;2.73;;;28.00;72.00;;;;;;5061079;28;20782;-57
2022/08/22 12:05:27;;;;;;;3.60;1.80;;;28.10;72.40;;;;;;5058940;28;20564;-53
2022/08/22 12:08:08;;;;;;;3.40;1.93;;;28.30;72.50;;;;;;5071106;28;20471;-54
2022/08/22 12:10:43;;;;;;;5.90;2.57;;;28.30;71.10;;;;;;5042343;28;20424;-54
2022/08/22 12:13:20;;;;;;;4.23;2.47;;;28.20;72.60;;;;;;5037437;28;20800;-57
2022/08/22 12:15:53;;;;;;;3.93;2.67;;;28.10;73.70;;;;;;5048511;28;20452;-55
2022/08/22 12:18:47;;;;;;;3.67;2.33;;;28.10;72.90;;;;;;5038668;28;20468;-56
2022/08/22 12:21:52;;;;;;;2.90;2.20;;;28.00;73.70;;;;;;5037774;28;20838;-52
2022/08/22 12:24:33;;;;;;;2.90;1.97;;;28.00;73.70;;;;;;5033813;28;20488;-54
2022/08/22 12:27:31;;;;;;;3.50;2.37;;;28.00;73.50;;;;;;5036866;28;20443;-52
2022/08/22 12:30:17;;;;;;;3.00;2.27;;;27.80;72.80;;;;;;5038537;28;20447;-55
2022/08/22 12:33:15;;;;;;;4.17;2.07;;;27.80;73.30;;;;;;5037561;28;20467;-55
2022/08/22 12:35:55;;;;;;;2.80;2.20;;;27.60;74.10;;;;;;5036893;28;20440;-53
2022/08/22 12:38:41;;;;;;;5.20;2.43;;;27.50;72.00;;;;;;5038741;28;20428;-52
2022/08/22 12:42:01;;;;;;;4.03;2.63;;;27.40;72.90;;;;;;5041395;28;20461;-55
2022/08/22 12:44:38;;;;;;;2.63;2.20;;;27.20;73.20;;;;;;4979376;28;20494;-55
2022/08/22 12:47:23;;;;;;;3.53;2.23;;;27.10;72.60;;;;;;4983900;28;20427;-55
2022/08/22 12:50:11;;;;;;;21.60;7.80;;;27.20;72.40;;;;;;5028747;28;20529;-57
2022/08/22 12:52:55;;;;;;;3.97;2.97;;;27.20;72.20;;;;;;5044656;28;20443;-53
2022/08/22 12:55:33;;;;;;;5.33;2.50;;;27.10;72.90;;;;;;5040045;28;20428;-53
2022/08/22 12:58:10;;;;;;;5.77;2.50;;;27.10;71.60;;;;;;5042081;28;20474;-55
2022/08/22 13:00:43;;;;;;;21.17;15.20;;;27.00;73.80;;;;;;5039898;28;20475;-55
2022/08/22 13:03:13;;;;;;;7.90;5.37;;;27.00;71.70;;;;;;5038778;28;20433;-56
2022/08/22 13:05:47;;;;;;;3.43;2.13;;;27.00;70.10;;;;;;5037639;28;20589;-54
2022/08/22 13:08:22;;;;;;;3.50;2.30;;;27.00;69.40;;;;;;5038319;28;20432;-53
2022/08/22 13:10:55;;;;;;;3.40;1.63;;;27.00;71.20;;;;;;5037364;28;20570;-56
2022/08/22 13:13:31;;;;;;;3.10;2.07;;;27.00;71.40;;;;;;5037131;28;20444;-55
2022/08/22 13:16:01;;;;;;;3.10;1.80;;;27.00;71.80;;;;;;5038298;28;20505;-57
2022/08/22 13:18:35;;;;;;;1.90;1.70;;;27.00;72.20;;;;;;5038597;28;20448;-55
2022/08/22 13:21:06;;;;;;;3.00;2.17;;;27.00;71.50;;;;;;5038146;28;20448;-54
2022/08/22 13:23:37;;;;;;;5.77;2.97;;;27.10;71.40;;;;;;5036816;28;20490;-54
2022/08/22 13:26:08;;;;;;;2.73;2.40;;;27.20;71.80;;;;;;5035959;28;20482;-56
2022/08/22 13:28:42;;;;;;;2.97;2.60;;;27.20;72.70;;;;;;5036014;28;20463;-52
2022/08/22 13:31:18;;;;;;;7.30;2.47;;;27.30;71.30;;;;;;5036089;28;20480;-53
2022/08/22 13:33:46;;;;;;;2.33;1.90;;;27.30;73.30;;;;;;5036580;28;20517;-54
2022/08/22 13:36:16;;;;;;;6.00;2.17;;;27.30;73.20;;;;;;5036615;28;20432;-59
2022/08/22 13:38:49;;;;;;;5.13;2.47;;;27.20;74.50;;;;;;5037481;28;20495;-52
2022/08/22 13:41:22;;;;;;;2.77;2.30;;;27.20;73.90;;;;;;5037695;28;20856;-56
2022/08/22 13:44:13;;;;;;;3.43;1.93;;;27.10;73.40;;;;;;5037387;28;20494;-54
2022/08/22 13:46:42;;;;;;;2.90;1.90;;;27.00;74.20;;;;;;5038725;28;20491;-52
2022/08/22 13:49:12;;;;;;;4.53;2.10;;;26.90;75.40;;;;;;5036204;28;20527;-53